Terminal Aerodrome Forecast
Issued by NWS Jacksonville, FL

Home | Current Version | Previous Version | Text Only | Print | Product List | Glossary On
Versions: 1 2 3 4 5 6 7 8 9 10 11 12 13 14 15
000
FTUS42 KJAX 172343
TAFGNV
TAF
KGNV 172343Z 1800/1824 17003KT P6SM SCT040 BKN250
     FM180700 00000KT 5SM BR FEW020 SCT120
     FM180900 00000KT 2SM BR SCT010 SCT100
     FM181400 24005KT P6SM SCT040 SCT100=

USA.gov is the U.S. government's official web portal to all federal, state and local government web resources and services.